Putnam County Regional (GPC)

 

Airport Diagram
No Airport Diagram Available
Current Weather/Forecast (IFR Conditions)
METAR KGPC 252355Z AUTO 06013KT 3 1/2SM -DZ BR OVC005 00/M01 A2973 RMK AO2 LTG DSNT SE T00011005 10002 21006 400031028
TAF

Airport Information

All Charts
General
Chart Name View
TAKEOFF MINIMUMS
TAKEOFF MINIMUMS

Approaches
Chart Name Download
RNAV (GPS) RWY 18
RNAV (GPS) RWY 36
VOR-A
RNAV (GPS) RWY 18
RNAV (GPS) RWY 36
VOR-A


Airport Statistics
Departures Arrivals Local
All Collected Stats since June 2016: 1 2 0
2021 Stats: 0 0 0
January Stats: 0 0 0

Inbound Traffic (Arrivals) - 0

No inbound traffic.


Outbound Traffic (Departures) - 0

No outbound traffic.


Local Traffic (Pattern) - 0

No local traffic.